Time;durP1;ratioP1;P1;durP2;ratioP2;P2;SDS_P1;SDS_P2;PMS_P1;PMS_P2;Temp;Humidity;BMP_temperature;BMP_pressure;BME280_temperature;BME280_humidity;BME280_pressure;Samples;Min_cycle;Max_cycle;Signal;HPM_P1;HPM_P2
2022/04/20 00:00:39;;;;;;;24.02;18.27;;;;;;;3.90;100.00;100112.47;5082683;28;20051;-70
2022/04/20 00:03:05;;;;;;;26.83;19.35;;;;;;;3.91;100.00;100108.84;5082230;28;20095;-69
2022/04/20 00:05:33;;;;;;;27.48;18.17;;;;;;;3.86;100.00;100092.38;5077893;28;20063;-69
2022/04/20 00:08:02;;;;;;;24.85;17.88;;;;;;;3.90;99.97;100107.16;5086322;28;20042;-69
2022/04/20 00:10:29;;;;;;;28.52;19.20;;;;;;;3.92;99.83;100113.19;5078998;28;20048;-69
2022/04/20 00:12:54;;;;;;;31.25;21.70;;;;;;;3.92;99.93;100107.91;5076401;28;20100;-69
2022/04/20 00:15:20;;;;;;;32.30;20.73;;;;;;;3.92;99.70;100106.09;5078937;28;20111;-69
2022/04/20 00:17:45;;;;;;;35.28;21.95;;;;;;;3.89;99.69;100102.78;5078922;28;20111;-69
2022/04/20 00:20:11;;;;;;;34.95;22.60;;;;;;;3.89;99.10;100108.94;5079531;28;20062;-69
2022/04/20 00:22:36;;;;;;;35.00;24.77;;;;;;;3.84;98.51;100104.91;5077043;28;20020;-69
2022/04/20 00:25:03;;;;;;;37.40;24.38;;;;;;;3.80;97.93;100106.00;5081048;28;20027;-69
2022/04/20 00:27:33;;;;;;;34.38;22.67;;;;;;;3.75;96.61;100108.13;5077638;28;20035;-70
2022/04/20 00:29:59;;;;;;;32.25;22.23;;;;;;;3.61;96.10;100095.72;5084426;28;20035;-69
2022/04/20 00:32:24;;;;;;;38.42;22.23;;;;;;;3.63;95.85;100117.72;5082286;28;20029;-69
2022/04/20 00:34:50;;;;;;;34.53;22.50;;;;;;;3.55;95.85;100119.13;5079424;28;20043;-69
2022/04/20 00:37:15;;;;;;;32.83;23.88;;;;;;;3.49;95.61;100112.44;5079357;28;20059;-69
2022/04/20 00:39:41;;;;;;;34.70;22.10;;;;;;;3.43;95.45;100110.16;5079801;28;20108;-70
2022/04/20 00:42:06;;;;;;;34.17;22.67;;;;;;;3.41;95.36;100105.88;5077823;28;20029;-70
2022/04/20 00:44:32;;;;;;;33.75;22.42;;;;;;;3.34;96.12;100104.56;5081728;28;20027;-70
2022/04/20 00:46:59;;;;;;;33.63;22.33;;;;;;;3.31;95.89;100110.03;5079137;28;20036;-69
2022/04/20 00:49:25;;;;;;;31.58;20.67;;;;;;;3.32;96.11;100114.41;5076947;28;20068;-70
2022/04/20 00:51:58;;;;;;;29.17;21.13;;;;;;;3.28;96.72;100115.53;5079543;28;20763;-69
2022/04/20 00:54:24;;;;;;;30.42;21.02;;;;;;;3.26;96.82;100115.63;5082029;28;20417;-69
2022/04/20 00:56:50;;;;;;;27.98;19.45;;;;;;;3.21;96.97;100119.50;5082010;28;20028;-69
2022/04/20 00:59:20;;;;;;;29.77;20.92;;;;;;;3.12;97.02;100112.97;5081951;28;20035;-69
2022/04/20 01:01:46;;;;;;;29.33;20.75;;;;;;;3.16;97.59;100118.94;5082240;28;20032;-69
2022/04/20 01:04:11;;;;;;;28.38;19.42;;;;;;;3.12;97.55;100126.22;5079195;28;20043;-69
2022/04/20 01:06:37;;;;;;;26.92;19.50;;;;;;;3.07;97.16;100117.72;5079524;28;20008;-68
2022/04/20 01:09:03;;;;;;;28.80;19.98;;;;;;;3.06;96.46;100121.28;5083226;28;20381;-68
2022/04/20 01:11:29;;;;;;;29.50;19.17;;;;;;;2.95;96.29;100114.94;5080245;28;20039;-68
2022/04/20 01:13:54;;;;;;;29.92;19.88;;;;;;;3.00;96.21;100131.41;5076177;28;20081;-69
2022/04/20 01:16:19;;;;;;;29.90;19.73;;;;;;;2.97;96.61;100131.59;5076402;28;20039;-68
2022/04/20 01:18:45;;;;;;;28.70;19.05;;;;;;;2.94;95.96;100134.41;5078722;28;20063;-69
2022/04/20 01:21:12;;;;;;;30.13;20.65;;;;;;;2.90;95.48;100136.38;5081680;28;20039;-69
2022/04/20 01:23:38;;;;;;;29.95;19.77;;;;;;;2.91;95.45;100153.13;5080508;28;20043;-70
2022/04/20 01:26:07;;;;;;;29.13;19.77;;;;;;;2.85;95.31;100141.13;5080859;28;20398;-69
2022/04/20 01:28:34;;;;;;;29.45;19.33;;;;;;;2.71;95.28;100121.69;5072920;28;20109;-69
2022/04/20 01:31:00;;;;;;;29.00;19.38;;;;;;;2.70;94.99;100126.13;5079333;28;20032;-67
2022/04/20 01:33:25;;;;;;;33.33;20.80;;;;;;;2.66;95.62;100132.56;5073412;28;20359;-68
2022/04/20 01:35:51;;;;;;;31.02;19.92;;;;;;;2.62;95.52;100141.63;5072827;28;20433;-69
2022/04/20 01:38:16;;;;;;;31.02;20.65;;;;;;;2.54;95.65;100141.19;5082194;28;20032;-69
2022/04/20 01:40:41;;;;;;;30.33;21.02;;;;;;;2.46;95.87;100137.28;5077875;28;20192;-69
2022/04/20 01:43:07;;;;;;;26.00;19.65;;;;;;;2.22;96.24;100103.38;5081329;28;20024;-69
2022/04/20 01:45:32;;;;;;;28.23;19.83;;;;;;;2.43;96.83;100141.81;5080992;28;20027;-69
2022/04/20 01:47:58;;;;;;;30.23;20.83;;;;;;;2.35;96.93;100130.81;5082924;28;20062;-70
2022/04/20 01:50:23;;;;;;;33.00;20.13;;;;;;;2.38;96.80;100142.19;5079552;28;20042;-70
2022/04/20 01:52:50;;;;;;;29.27;20.60;;;;;;;2.28;96.79;100129.47;5081973;28;20353;-68
2022/04/20 01:55:18;;;;;;;28.95;20.25;;;;;;;2.33;96.55;100145.09;5081975;28;20032;-67
2022/04/20 01:57:44;;;;;;;29.50;20.17;;;;;;;2.30;96.77;100134.69;5073672;28;20485;-68
2022/04/20 02:00:10;;;;;;;28.90;20.35;;;;;;;2.24;97.41;100135.88;5081180;28;20031;-69
2022/04/20 02:02:38;;;;;;;27.25;19.70;;;;;;;2.25;97.91;100150.81;5075697;28;20067;-69
2022/04/20 02:05:09;;;;;;;26.65;19.10;;;;;;;2.24;98.27;100145.59;5076625;28;20033;-69
2022/04/20 02:07:35;;;;;;;26.48;18.63;;;;;;;2.18;97.81;100138.00;5080136;28;20037;-69
2022/04/20 02:10:03;;;;;;;29.58;20.20;;;;;;;2.20;97.55;100141.44;5071558;28;20073;-69
2022/04/20 02:12:28;;;;;;;27.05;19.10;;;;;;;2.21;97.95;100133.41;5079283;28;20090;-69
2022/04/20 02:14:54;;;;;;;27.77;19.40;;;;;;;2.20;97.79;100144.91;5083365;28;20118;-69
2022/04/20 02:17:19;;;;;;;28.52;20.90;;;;;;;2.15;98.34;100139.06;5084769;28;20035;-69
2022/04/20 02:19:45;;;;;;;30.08;20.38;;;;;;;2.20;98.50;100134.34;5074446;28;20032;-68
2022/04/20 02:22:11;;;;;;;32.00;21.00;;;;;;;2.20;98.56;100134.34;5085710;28;20541;-69
2022/04/20 02:24:36;;;;;;;27.17;19.70;;;;;;;2.20;98.05;100138.78;5075895;28;20073;-69
2022/04/20 02:27:02;;;;;;;30.13;21.58;;;;;;;2.14;98.15;100131.19;5081659;28;20023;-69
2022/04/20 02:29:28;;;;;;;30.38;19.63;;;;;;;2.16;97.68;100143.38;5074434;28;20499;-69
2022/04/20 02:31:54;;;;;;;29.73;19.88;;;;;;;2.16;98.12;100142.56;5081997;28;20063;-69
2022/04/20 02:34:19;;;;;;;31.33;21.50;;;;;;;2.13;97.80;100146.22;5079894;28;20063;-69
2022/04/20 02:36:45;;;;;;;29.77;21.52;;;;;;;2.09;98.33;100147.31;5081793;28;20036;-69
2022/04/20 02:39:11;;;;;;;36.97;24.10;;;;;;;2.01;98.25;100136.34;5078763;28;20689;-69
2022/04/20 02:41:37;;;;;;;32.92;23.42;;;;;;;2.03;98.89;100144.16;5084307;28;20035;-69
2022/04/20 02:44:04;;;;;;;43.60;26.30;;;;;;;1.98;99.49;100136.50;5076138;28;20034;-69
2022/04/20 02:46:30;;;;;;;42.42;26.10;;;;;;;1.95;99.76;100136.69;5078517;28;20037;-69
2022/04/20 02:48:55;;;;;;;64.45;32.53;;;;;;;2.05;100.00;100151.09;5083564;28;20059;-68
2022/04/20 02:51:20;;;;;;;62.80;33.42;;;;;;;2.03;100.00;100150.31;5087117;28;20024;-68
2022/04/20 02:53:46;;;;;;;54.53;31.05;;;;;;;1.95;100.00;100136.69;5075202;28;20142;-68
2022/04/20 02:56:12;;;;;;;52.30;28.60;;;;;;;1.94;100.00;100134.94;5080145;28;20016;-68
2022/04/20 02:58:37;;;;;;;49.58;29.23;;;;;;;1.99;100.00;100148.78;5076969;28;20028;-68
2022/04/20 03:01:03;;;;;;;43.45;26.65;;;;;;;2.00;100.00;100153.13;5078804;28;20104;-68
2022/04/20 03:03:28;;;;;;;41.67;26.60;;;;;;;1.97;99.65;100155.09;5076823;28;20506;-69
2022/04/20 03:05:55;;;;;;;49.17;25.70;;;;;;;1.92;99.27;100149.19;5079005;28;20036;-69
2022/04/20 03:08:21;;;;;;;37.95;24.58;;;;;;;1.96;99.42;100154.25;5086023;28;20059;-69
2022/04/20 03:10:46;;;;;;;37.97;24.88;;;;;;;1.95;99.11;100149.91;5084558;28;20467;-70
2022/04/20 03:13:12;;;;;;;36.63;23.65;;;;;;;1.93;99.38;100151.75;5078634;28;20021;-70
2022/04/20 03:15:37;;;;;;;37.33;24.33;;;;;;;1.86;98.93;100145.09;5081590;28;20016;-70
2022/04/20 03:18:03;;;;;;;34.58;24.23;;;;;;;1.93;99.12;100149.13;5077703;28;20501;-69
2022/04/20 03:20:28;;;;;;;38.78;24.52;;;;;;;1.88;98.97;100139.75;5079683;28;20474;-69
2022/04/20 03:22:54;;;;;;;39.55;24.85;;;;;;;1.88;98.93;100148.53;5084042;28;20052;-69
2022/04/20 03:25:19;;;;;;;36.03;24.30;;;;;;;1.90;99.05;100145.78;5078289;28;20032;-69
2022/04/20 03:27:45;;;;;;;34.15;22.58;;;;;;;1.88;99.14;100145.88;5079533;28;20024;-69
2022/04/20 03:30:14;;;;;;;31.02;22.73;;;;;;;1.87;99.55;100148.63;5078245;28;20031;-66
2022/04/20 03:32:40;;;;;;;33.28;22.67;;;;;;;1.83;99.08;100141.78;5068489;28;20381;-66
2022/04/20 03:35:06;;;;;;;33.60;21.45;;;;;;;1.83;98.59;100149.69;5078914;28;20024;-66
2022/04/20 03:37:32;;;;;;;34.55;23.40;;;;;;;1.78;98.42;100146.47;5078384;28;20020;-66
2022/04/20 03:39:59;;;;;;;34.92;23.45;;;;;;;1.78;98.90;100147.31;5076207;28;20032;-66
2022/04/20 03:42:25;;;;;;;39.67;24.83;;;;;;;1.80;98.94;100161.31;5072965;28;20560;-67
2022/04/20 03:44:51;;;;;;;39.42;25.20;;;;;;;1.73;99.26;100141.44;5077998;28;20024;-67
2022/04/20 03:47:16;;;;;;;45.70;27.77;;;;;;;1.80;99.92;100155.16;5076262;28;20040;-66
2022/04/20 03:49:42;;;;;;;45.78;28.42;;;;;;;1.79;99.47;100161.38;5077962;28;20367;-67
2022/04/20 03:52:08;;;;;;;45.33;27.00;;;;;;;1.72;99.76;100142.38;5071648;28;20024;-66
2022/04/20 03:54:35;;;;;;;44.28;27.60;;;;;;;1.75;100.00;100158.06;5071684;28;20063;-66
2022/04/20 03:57:03;;;;;;;42.78;28.80;;;;;;;1.74;100.00;100152.88;5072516;28;20034;-67
2022/04/20 03:59:33;;;;;;;44.60;27.60;;;;;;;1.77;100.00;100160.59;5080447;28;20059;-66
2022/04/20 04:02:03;;;;;;;48.33;28.83;;;;;;;1.74;100.00;100152.88;5078002;28;20015;-67
2022/04/20 04:04:28;;;;;;;46.60;29.77;;;;;;;1.83;100.00;100176.13;5080054;28;20044;-67
2022/04/20 04:06:54;;;;;;;104.93;43.50;;;;;;;1.80;100.00;100182.44;5073039;28;20561;-65
2022/04/20 04:09:20;;;;;;;133.07;48.88;;;;;;;1.84;100.00;100173.41;5076688;28;20036;-66
2022/04/20 04:11:45;;;;;;;124.05;48.20;;;;;;;1.83;100.00;100168.22;5076593;28;20036;-66
2022/04/20 04:14:11;;;;;;;121.07;46.97;;;;;;;1.86;100.00;100173.31;5078836;28;20064;-66
2022/04/20 04:16:36;;;;;;;130.50;49.83;;;;;;;1.89;100.00;100175.81;5077718;28;20028;-65
2022/04/20 04:19:06;;;;;;;138.80;54.10;;;;;;;1.96;100.00;100183.31;5072427;28;20385;-66
2022/04/20 04:21:35;;;;;;;163.85;62.17;;;;;;;1.98;100.00;100185.88;5070070;28;20633;-66
2022/04/20 04:24:00;;;;;;;179.90;62.47;;;;;;;2.01;100.00;100186.59;5078661;28;20020;-65
2022/04/20 04:26:27;;;;;;;168.40;63.13;;;;;;;2.10;100.00;100196.63;5078956;28;21368;-65
2022/04/20 04:28:53;;;;;;;177.52;62.70;;;;;;;2.17;100.00;100198.00;5077918;28;20041;-66
2022/04/20 04:31:19;;;;;;;172.07;64.65;;;;;;;2.23;100.00;100195.00;5074119;28;20020;-66
2022/04/20 04:33:44;;;;;;;161.43;63.03;;;;;;;2.34;100.00;100203.22;5078519;28;20063;-66
2022/04/20 04:36:10;;;;;;;152.27;58.50;;;;;;;2.40;100.00;100199.38;5077367;28;20089;-67
2022/04/20 04:38:35;;;;;;;132.40;56.67;;;;;;;2.48;100.00;100205.06;5076687;28;20032;-67
2022/04/20 04:41:01;;;;;;;132.93;53.88;;;;;;;2.56;100.00;100199.34;5074023;28;20082;-68
2022/04/20 04:43:27;;;;;;;115.00;46.60;;;;;;;2.57;100.00;100193.97;5076071;28;20089;-67
2022/04/20 04:48:36;;;;;;;77.18;39.22;;;;;;;2.82;100.00;100209.28;5080509;28;20064;-67
2022/04/20 04:51:03;;;;;;;67.03;37.63;;;;;;;2.95;100.00;100215.56;5077593;28;20036;-67
2022/04/20 04:53:29;;;;;;;85.45;40.25;;;;;;;2.97;100.00;100211.06;5083883;28;20064;-67
2022/04/20 04:55:55;;;;;;;78.10;36.88;;;;;;;3.11;100.00;100216.38;5074248;28;20441;-67
2022/04/20 04:58:20;;;;;;;89.57;40.53;;;;;;;3.19;100.00;100211.50;5073098;28;20073;-66
2022/04/20 05:00:46;;;;;;;73.15;38.45;;;;;;;3.27;100.00;100210.09;5076224;28;20039;-66
2022/04/20 05:03:14;;;;;;;72.95;36.67;;;;;;;3.44;100.00;100217.00;5086945;28;20020;-67
2022/04/20 05:05:41;;;;;;;64.30;35.22;;;;;;;3.49;100.00;100202.56;5086349;28;20028;-67
2022/04/20 05:08:07;;;;;;;55.42;32.72;;;;;;;3.71;100.00;100215.34;5068402;28;20031;-67
2022/04/20 05:10:33;;;;;;;55.28;32.38;;;;;;;3.80;100.00;100198.84;5072977;28;20040;-68
2022/04/20 05:13:02;;;;;;;50.75;30.60;;;;;;;3.98;100.00;100208.31;5079114;28;20073;-68
2022/04/20 05:15:28;;;;;;;39.97;27.60;;;;;;;4.17;100.00;100208.88;5085223;28;20122;-68
2022/04/20 05:17:53;;;;;;;42.60;25.80;;;;;;;4.31;100.00;100216.78;5075529;28;20115;-67
2022/04/20 05:20:20;;;;;;;35.58;24.98;;;;;;;4.43;100.00;100205.41;5084772;28;20515;-67
2022/04/20 05:22:49;;;;;;;39.15;25.77;;;;;;;4.57;100.00;100210.66;5087536;28;20386;-66
2022/04/20 05:25:14;;;;;;;32.03;23.92;;;;;;;4.77;100.00;100212.84;5081924;28;20037;-66
2022/04/20 05:27:40;;;;;;;31.52;22.48;;;;;;;4.92;100.00;100217.16;5070151;28;20406;-66
2022/04/20 05:30:08;;;;;;;32.05;24.15;;;;;;;5.07;100.00;100213.50;5071462;28;20028;-67
2022/04/20 05:32:34;;;;;;;29.55;21.92;;;;;;;5.17;100.00;100203.94;5078107;28;20505;-66
2022/04/20 05:35:01;;;;;;;28.00;20.00;;;;;;;5.37;100.00;100208.75;5079424;28;20036;-66
2022/04/20 05:43:02;;;;;;;25.13;19.70;;;;;;;5.91;98.48;100207.63;5062382;28;20036;-69
2022/04/20 05:45:27;;;;;;;24.50;17.52;;;;;;;6.08;97.92;100211.75;5087111;28;20024;-69
2022/04/20 05:47:53;;;;;;;27.13;19.05;;;;;;;6.26;96.96;100211.28;5082134;28;20051;-69
2022/04/20 05:50:18;;;;;;;24.25;18.65;;;;;;;6.49;96.15;100218.44;5084670;28;20039;-70
2022/04/20 05:52:44;;;;;;;23.92;18.42;;;;;;;6.66;95.57;100217.22;5083805;28;20050;-67
2022/04/20 05:55:09;;;;;;;22.67;17.27;;;;;;;6.86;95.12;100219.28;5085696;28;20036;-67
2022/04/20 05:57:36;;;;;;;23.88;16.58;;;;;;;7.02;92.67;100216.34;5075344;28;20029;-67
2022/04/20 06:00:05;;;;;;;22.15;17.30;;;;;;;7.22;91.48;100226.34;5081054;28;20051;-67
2022/04/20 06:02:34;;;;;;;21.33;15.82;;;;;;;7.40;90.52;100225.81;5079276;28;20016;-70
2022/04/20 06:05:00;;;;;;;20.67;15.77;;;;;;;7.58;89.20;100224.38;5078742;28;20457;-71
2022/04/20 06:07:26;;;;;;;22.23;15.48;;;;;;;7.75;88.38;100220.41;5085524;28;20051;-69
2022/04/20 06:09:52;;;;;;;18.65;15.32;;;;;;;8.00;86.96;100217.53;5084188;28;20027;-69
2022/04/20 06:12:17;;;;;;;21.13;15.13;;;;;;;8.22;85.55;100214.91;5080990;28;20024;-69
2022/04/20 06:14:43;;;;;;;18.05;14.68;;;;;;;8.40;85.44;100216.06;5081327;28;20066;-69
2022/04/20 06:17:08;;;;;;;17.13;12.77;;;;;;;8.57;83.54;100216.41;5084309;28;20030;-70
2022/04/20 06:19:34;;;;;;;17.33;14.18;;;;;;;8.79;83.18;100220.84;5082981;28;20478;-70
2022/04/20 06:22:00;;;;;;;18.85;13.95;;;;;;;9.00;81.32;100224.44;5088875;28;20081;-71
2022/04/20 06:24:25;;;;;;;17.65;13.13;;;;;;;9.22;79.40;100218.97;5083150;28;20023;-71
2022/04/20 06:26:51;;;;;;;14.27;11.35;;;;;;;9.40;77.63;100221.94;5082963;28;20099;-70
2022/04/20 06:29:16;;;;;;;15.00;12.65;;;;;;;9.53;75.93;100219.94;5084851;28;20782;-71
2022/04/20 06:31:44;;;;;;;14.98;12.57;;;;;;;9.69;75.77;100210.47;5082380;28;20035;-71
2022/04/20 06:34:09;;;;;;;14.07;11.93;;;;;;;9.87;74.90;100216.06;5082464;28;20105;-71
2022/04/20 06:36:35;;;;;;;14.57;12.02;;;;;;;10.01;73.56;100210.34;5082483;28;20071;-71
2022/04/20 06:39:01;;;;;;;15.43;11.30;;;;;;;10.23;72.91;100211.06;5087955;28;20153;-70
2022/04/20 06:41:26;;;;;;;17.35;10.73;;;;;;;10.35;71.77;100201.91;5089392;28;20036;-70
2022/04/20 06:43:52;;;;;;;11.25;9.63;;;;;;;10.61;69.39;100213.84;5083649;28;20027;-70
2022/04/20 06:46:17;;;;;;;11.98;10.68;;;;;;;10.76;68.13;100207.13;5079305;28;20059;-70
2022/04/20 06:48:42;;;;;;;14.43;9.75;;;;;;;10.87;68.00;100201.63;5080631;28;20043;-67
2022/04/20 06:51:08;;;;;;;13.57;10.05;;;;;;;11.13;66.25;100210.81;5081484;28;20032;-68
2022/04/20 06:59:01;;;;;;;11.82;9.85;;;;;;;11.67;64.76;100187.91;5072009;28;20040;-68
2022/04/20 07:01:27;;;;;;;10.45;9.35;;;;;;;11.95;63.23;100192.34;5082140;28;20403;-68
2022/04/20 07:03:52;;;;;;;11.50;10.13;;;;;;;12.14;62.19;100197.66;5080499;28;20020;-70
2022/04/20 07:06:18;;;;;;;11.68;9.38;;;;;;;12.22;61.85;100189.72;5079895;28;20603;-70
2022/04/20 07:08:43;;;;;;;12.23;10.02;;;;;;;12.33;60.56;100190.38;5084530;28;20472;-70
2022/04/20 07:11:09;;;;;;;10.32;8.55;;;;;;;12.35;60.53;100193.75;5078296;28;20377;-70
2022/04/20 07:13:35;;;;;;;10.90;9.75;;;;;;;12.53;60.11;100196.50;5079218;28;20097;-70
2022/04/20 07:16:00;;;;;;;12.50;9.55;;;;;;;12.59;60.72;100193.19;5083388;28;20073;-70
2022/04/20 07:18:26;;;;;;;10.52;8.63;;;;;;;12.74;59.18;100197.91;5083540;28;20119;-70
2022/04/20 07:20:51;;;;;;;9.77;8.68;;;;;;;12.86;59.43;100191.31;5079827;28;20027;-70
2022/04/20 07:23:17;;;;;;;11.15;9.63;;;;;;;13.03;57.53;100192.38;5081590;28;20047;-70
2022/04/20 07:25:43;;;;;;;10.35;8.80;;;;;;;13.17;57.63;100195.38;5079453;28;20090;-70
2022/04/20 07:28:09;;;;;;;10.32;9.23;;;;;;;13.31;57.27;100194.81;5081496;28;20124;-70
2022/04/20 07:30:37;;;;;;;10.98;8.50;;;;;;;13.43;56.21;100193.59;5085158;28;20039;-70
2022/04/20 07:33:04;;;;;;;9.35;8.43;;;;;;;13.57;55.48;100187.63;5080610;28;20478;-71
2022/04/20 07:35:30;;;;;;;10.18;7.50;;;;;;;13.76;55.58;100188.47;5075883;28;20550;-67
2022/04/20 07:37:56;;;;;;;12.50;8.75;;;;;;;13.84;54.76;100193.88;5078101;28;20101;-67
2022/04/20 07:40:23;;;;;;;9.43;7.75;;;;;;;13.99;52.94;100186.91;5080000;28;20386;-69
2022/04/20 07:42:53;;;;;;;9.77;8.13;;;;;;;14.05;53.27;100189.81;5082441;28;20020;-69
2022/04/20 07:45:18;;;;;;;10.05;9.05;;;;;;;14.12;53.38;100182.75;5088066;28;20031;-70
2022/04/20 07:47:43;;;;;;;11.10;8.32;;;;;;;14.28;53.14;100182.88;5079083;28;20498;-69
2022/04/20 07:50:18;;;;;;;9.70;8.23;;;;;;;14.47;52.81;100184.47;5075477;28;20030;-69
2022/04/20 07:52:47;;;;;;;9.77;7.47;;;;;;;14.64;52.79;100186.25;5084086;28;20020;-69
2022/04/20 07:55:18;;;;;;;10.30;7.05;;;;;;;14.80;50.56;100180.91;5078423;28;20367;-69
2022/04/20 07:57:44;;;;;;;6.88;6.18;;;;;;;14.86;49.85;100194.56;5081795;28;20027;-69
2022/04/20 08:00:11;;;;;;;8.27;6.78;;;;;;;14.99;49.43;100189.53;5076194;28;20714;-69
2022/04/20 08:02:36;;;;;;;9.02;6.75;;;;;;;15.17;49.13;100184.84;5076459;28;20024;-69
2022/04/20 08:05:02;;;;;;;10.45;6.80;;;;;;;15.38;49.10;100190.63;5082334;28;20077;-69
2022/04/20 08:07:27;;;;;;;8.38;6.38;;;;;;;15.55;47.80;100170.69;5082994;28;20024;-69
2022/04/20 08:09:53;;;;;;;7.50;6.72;;;;;;;15.74;47.22;100167.63;5082624;28;20028;-67
2022/04/20 08:12:19;;;;;;;11.20;6.95;;;;;;;16.00;47.60;100166.56;5080931;28;20430;-67
2022/04/20 08:14:45;;;;;;;8.90;7.18;;;;;;;16.20;47.32;100167.84;5071759;28;20120;-67
2022/04/20 08:17:10;;;;;;;7.68;6.88;;;;;;;16.44;46.29;100171.34;5076863;28;20020;-67
2022/04/20 08:19:36;;;;;;;8.48;7.35;;;;;;;16.73;44.74;100163.44;5086773;28;20028;-67
2022/04/20 08:22:02;;;;;;;8.13;7.05;;;;;;;16.99;42.85;100158.53;5086609;28;20023;-69
2022/04/20 08:24:28;;;;;;;8.13;6.95;;;;;;;16.82;43.74;100161.50;5080311;28;20019;-69
2022/04/20 08:26:53;;;;;;;17.45;13.27;;;;;;;16.65;44.71;100165.34;5078165;28;20113;-69
2022/04/20 08:29:19;;;;;;;44.45;32.15;;;;;;;16.68;45.47;100148.72;5082621;28;20023;-69
2022/04/20 08:31:45;;;;;;;31.45;22.90;;;;;;;16.85;44.17;100159.31;5082419;28;20469;-69
2022/04/20 08:34:10;;;;;;;10.05;7.47;;;;;;;16.83;42.41;100160.50;5078387;28;20481;-69
2022/04/20 08:36:36;;;;;;;9.73;7.70;;;;;;;16.54;43.20;100157.63;5082299;28;20404;-69
2022/04/20 08:39:02;;;;;;;40.80;31.30;;;;;;;16.26;43.55;100145.50;5076726;28;20024;-70
2022/04/20 08:41:28;;;;;;;8.05;7.25;;;;;;;16.04;43.47;100154.38;5081645;28;20494;-70
2022/04/20 08:43:56;;;;;;;8.55;6.38;;;;;;;16.58;42.84;100157.09;5083328;28;20035;-70
2022/04/20 08:46:24;;;;;;;9.57;7.85;;;;;;;17.33;41.19;100147.25;5078214;28;20379;-69
2022/04/20 08:48:50;;;;;;;8.60;7.07;;;;;;;17.73;39.54;100147.78;5087466;28;20044;-69
2022/04/20 08:51:17;;;;;;;20.27;13.93;;;;;;;17.73;39.83;100152.34;5082976;28;20500;-69
2022/04/20 08:53:43;;;;;;;46.72;28.00;;;;;;;17.49;40.07;100139.88;5078979;28;20020;-70
2022/04/20 08:58:53;;;;;;;139.93;34.95;;;;;;;16.86;40.80;100149.31;5078674;28;20031;-70
2022/04/20 09:01:19;;;;;;;38.50;22.60;;;;;;;16.43;40.59;100152.56;5088294;28;20122;-68
2022/04/20 09:03:46;;;;;;;13.95;9.30;;;;;;;16.26;41.69;100153.63;5078706;28;20042;-69
2022/04/20 09:06:13;;;;;;;7.55;5.70;;;;;;;16.14;40.45;100155.03;5083632;28;20028;-69
2022/04/20 09:08:39;;;;;;;26.05;14.55;;;;;;;15.94;41.29;100141.88;5082707;28;20023;-66
2022/04/20 09:11:05;;;;;;;31.13;17.45;;;;;;;15.88;42.14;100150.72;5088333;28;20036;-69
2022/04/20 09:13:33;;;;;;;10.50;7.03;;;;;;;15.85;41.95;100142.09;5076159;28;20115;-68
2022/04/20 09:16:10;;;;;;;7.18;5.70;;;;;;;15.93;42.16;100146.63;5077799;28;20025;-68
2022/04/20 09:18:36;;;;;;;9.52;6.63;;;;;;;15.98;41.47;100145.09;5086935;28;20039;-68
2022/04/20 09:21:11;;;;;;;13.93;10.00;;;;;;;16.14;41.68;100138.78;5080543;28;20534;-68
2022/04/20 09:23:36;;;;;;;;;;;;;;;16.12;40.88;100144.38;5084878;28;20027;-68
2022/04/20 09:26:15;;;;;;;13.57;7.90;;;;;;;16.07;41.75;100143.22;5079846;28;19916;-68
2022/04/20 09:29:01;;;;;;;9.43;6.68;;;;;;;16.01;41.46;100139.34;5077976;28;20474;-68
2022/04/20 09:31:47;;;;;;;8.05;5.55;;;;;;;15.98;41.44;100149.66;5078702;28;20042;-70
2022/04/20 09:34:24;;;;;;;6.65;5.70;;;;;;;15.87;40.96;100143.59;5075287;28;20051;-70
2022/04/20 09:36:51;;;;;;;7.03;5.72;;;;;;;15.89;40.53;100130.75;5084949;28;20036;-69
2022/04/20 09:39:16;;;;;;;7.47;5.78;;;;;;;15.74;40.88;100137.06;5081921;28;20029;-69
2022/04/20 09:42:02;;;;;;;7.72;5.40;;;;;;;15.44;41.22;100145.84;5088758;28;20024;-68
2022/04/20 09:44:30;;;;;;;7.10;5.57;;;;;;;15.10;42.16;100137.06;5082688;28;20023;-69
2022/04/20 09:50:00;;;;;;;5.80;5.20;;;;;;;14.79;43.16;100139.53;5078645;28;20128;-69
2022/04/20 09:52:35;;;;;;;8.55;5.25;;;;;;;15.06;41.52;100143.81;5082370;28;20028;-68
2022/04/20 09:55:00;;;;;;;9.40;6.15;;;;;;;15.06;40.92;100141.09;5079085;28;20089;-69
2022/04/20 09:57:26;;;;;;;6.75;5.65;;;;;;;14.94;42.08;100143.28;5082792;28;20032;-68
2022/04/20 09:59:57;;;;;;;8.55;6.38;;;;;;;14.89;42.96;100142.94;5087926;28;20074;-69
2022/04/20 10:02:23;;;;;;;6.22;5.28;;;;;;;14.86;42.13;100145.09;5081212;28;20028;-68
2022/04/20 10:04:48;;;;;;;6.78;5.90;;;;;;;14.86;42.07;100148.66;5083177;28;20021;-68
2022/04/20 10:07:15;;;;;;;8.18;5.88;;;;;;;14.84;41.57;100145.31;5086061;28;20062;-68
2022/04/20 10:09:40;;;;;;;8.35;5.47;;;;;;;14.83;41.01;100149.00;5075625;28;20040;-68
2022/04/20 10:12:11;;;;;;;9.57;5.65;;;;;;;14.71;41.45;100136.84;5079085;28;20029;-68
2022/04/20 10:17:26;;;;;;;6.65;5.65;;;;;;;14.60;41.49;100144.38;5074283;28;20039;-69
2022/04/20 10:19:53;;;;;;;5.47;4.97;;;;;;;14.57;40.60;100129.34;5085165;28;20074;-69
2022/04/20 10:22:20;;;;;;;5.75;5.15;;;;;;;14.68;40.94;100145.25;5073927;28;20036;-69
2022/04/20 10:24:50;;;;;;;6.90;5.43;;;;;;;14.71;41.28;100134.13;5083845;28;20572;-68
2022/04/20 10:27:39;;;;;;;6.18;4.60;;;;;;;14.81;41.36;100134.84;5075832;28;20027;-68
2022/04/20 10:30:20;;;;;;;6.57;5.13;;;;;;;14.91;40.81;100131.97;5074823;28;20090;-69
2022/04/20 10:32:52;;;;;;;7.30;5.38;;;;;;;15.00;40.60;100134.50;5081966;28;20503;-69
2022/04/20 10:35:18;;;;;;;6.55;5.10;;;;;;;15.12;39.43;100121.53;5082554;28;20500;-69
2022/04/20 10:38:12;;;;;;;6.72;5.47;;;;;;;15.28;38.78;100118.81;5081548;28;20028;-69
2022/04/20 10:40:59;;;;;;;7.87;5.27;;;;;;;15.26;40.09;100127.06;5074002;28;20016;-69
2022/04/20 10:43:26;;;;;;;6.43;5.10;;;;;;;15.29;40.14;100125.91;5080212;28;20024;-69
2022/04/20 10:46:21;;;;;;;7.43;5.30;;;;;;;15.33;39.90;100130.81;5088967;28;20038;-69
2022/04/20 10:48:53;;;;;;;5.60;4.90;;;;;;;15.32;40.34;100125.59;5068836;28;20059;-69
2022/04/20 10:51:24;;;;;;;5.70;4.40;;;;;;;15.32;40.01;100122.88;5075241;28;20512;-69
2022/04/20 10:53:52;;;;;;;7.10;4.72;;;;;;;15.28;38.57;100125.06;5083165;28;20123;-68
2022/04/20 10:56:20;;;;;;;6.70;4.75;;;;;;;15.29;39.24;100118.63;5072090;28;20028;-68
2022/04/20 10:59:04;;;;;;;5.82;4.20;;;;;;;15.29;38.99;100109.69;5076358;28;20035;-69
2022/04/20 11:01:29;;;;;;;5.68;4.18;;;;;;;15.32;38.26;100115.59;5078079;28;20029;-69
2022/04/20 11:03:57;;;;;;;4.70;4.30;;;;;;;15.42;38.90;100115.47;5084282;28;20389;-69
2022/04/20 11:06:27;;;;;;;4.65;3.63;;;;;;;15.49;38.75;100116.47;5080551;28;20147;-70
2022/04/20 11:08:52;;;;;;;4.28;3.85;;;;;;;15.53;38.46;100104.28;5073374;28;20536;-70
2022/04/20 11:19:52;;;;;;;5.32;4.15;;;;;;;15.71;37.51;100086.84;5081673;28;20082;-70
2022/04/20 11:22:18;;;;;;;4.68;4.05;;;;;;;15.70;37.81;100095.97;5079507;28;20031;-70
2022/04/20 11:24:44;;;;;;;4.65;4.10;;;;;;;15.63;37.13;100097.69;5077283;28;20052;-69
2022/04/20 11:27:11;;;;;;;4.55;4.13;;;;;;;15.68;36.73;100106.13;5085540;28;20072;-69
2022/04/20 11:29:37;;;;;;;8.05;4.70;;;;;;;15.51;36.93;100088.25;5082426;28;20462;-69
2022/04/20 11:32:12;;;;;;;5.78;4.63;;;;;;;15.38;37.08;100090.63;5085083;28;20043;-69
2022/04/20 11:34:41;;;;;;;6.10;4.20;;;;;;;15.32;37.72;100101.25;5077615;28;20027;-69
2022/04/20 11:37:07;;;;;;;5.30;4.80;;;;;;;15.29;37.50;100091.63;5077393;28;20090;-69
2022/04/20 11:39:34;;;;;;;4.90;4.40;;;;;;;15.32;37.97;100093.97;5078063;28;20024;-70
2022/04/20 11:42:04;;;;;;;6.28;4.13;;;;;;;15.38;37.73;100096.03;5078203;28;20023;-69
2022/04/20 11:44:31;;;;;;;4.22;3.55;;;;;;;15.46;37.15;100095.19;5071605;28;20541;-70
2022/04/20 11:47:01;;;;;;;4.75;3.80;;;;;;;15.52;36.25;100081.00;5078381;28;20359;-69